Maersk Danang — A8PS5 — position and weather

sailwx.info

Track history (hours):
 
Tides and Currents Weather Stations Pressure Air Temp Water Temp Dewpoint Dewpoint Depression Visibility Wind Speed Wind Dir Waves Ship Positions

Maersk Danang

Last reported at 2015-Mar-25 12:27 UTC. Time now 2015-Mar-30 20:02 UTC.
Position N 31°05' E 122°32'.

Length 293 m; draft 10.9 m.

Type: Ship (hazmat cat A). MMSI: 636091595.

Date/timePositionNaut miles runAvg speedWind from/ knotsBaromVisibWave heightAir tempDewpointWater temp
2015-Mar-25 12:27N 31°05' E 122°32'1111.0
2015-Mar-25 11:27N 31°06' E 122°19'1213.3
2015-Mar-25 10:33N 31°13' E 122°08'1211.7
2015-Mar-25 09:34N 31°16' E 121°55'1211.5
2015-Mar-25 08:33N 31°19' E 121°42'2 2.2
2015-Mar-25 07:31N 31°20' E 121°39'0 0.0
2015-Mar-25 06:33N 31°20' E 121°39'0 0.1
2015-Mar-25 05:33N 31°20' E 121°39'0 0.1
2015-Mar-25 04:34N 31°20' E 121°39'0 0.1
2015-Mar-25 03:31N 31°20' E 121°39'0 0.0
2015-Mar-25 01:32N 31°20' E 121°39'0 0.1
2015-Mar-25 00:28N 31°20' E 121°39'0 0.0
2015-Mar-24 23:31N 31°20' E 121°39'0 0.1
2015-Mar-24 22:32N 31°20' E 121°39'0 0.1
2015-Mar-24 21:31N 31°20' E 121°39'0 0.1
2015-Mar-24 20:30N 31°20' E 121°39'0 0.0
2015-Mar-24 19:32N 31°20' E 121°39'1 0.8
2015-Mar-24 18:33N 31°21' E 121°39'6 5.8
2015-Mar-24 17:33N 31°19' E 121°45'1111.2
2015-Mar-24 16:33N 31°15' E 121°58'1111.3
2015-Mar-24 15:33N 31°11' E 122°10'1312.7
2015-Mar-24 14:33N 31°06' E 122°24'1110.8
2015-Mar-24 13:31N 31°07' E 122°37'43110.5
2015-Mar-22 20:33N 24°35' E 119°12'1413.8
2015-Mar-22 19:31N 24°26' E 119°00'2913.5
2015-Mar-22 17:24N 24°07' E 118°37'1214.2
2015-Mar-22 16:33N 23°59' E 118°27'1514.8
2015-Mar-22 15:33N 23°50' E 118°15'1615.6
2015-Mar-22 14:33N 23°40' E 118°02'2216.0
2015-Mar-22 13:10N 23°25' E 117°43'1015.8
2015-Mar-22 12:32N 23°19' E 117°35'3314.2
2015-Mar-22 10:13N 22°60' E 117°06'913.4
2015-Mar-22 09:32N 22°55' E 116°57'13713.7
2015-Mar-21 23:33N 22°19' E 114°34'2310.9
2015-Mar-21 21:26N 22°34' E 114°16'0 0.0
2015-Mar-21 20:26N 22°34' E 114°16'0 0.0
2015-Mar-21 19:32N 22°34' E 114°16'0 0.0
2015-Mar-21 17:19N 22°34' E 114°16'0 0.0
2015-Mar-21 16:33N 22°34' E 114°16'0 0.0
2015-Mar-21 15:32N 22°35' E 114°16'0 0.0
2015-Mar-21 14:33N 22°35' E 114°16'0 0.0
2015-Mar-21 13:33N 22°35' E 114°16'0 0.0
2015-Mar-21 12:33N 22°35' E 114°16'0 0.0
2015-Mar-21 11:25N 22°35' E 114°16'0 0.0
2015-Mar-21 10:33N 22°34' E 114°16'0 0.0
2015-Mar-21 09:31N 22°35' E 114°16'0 0.0
2015-Mar-21 08:30N 22°35' E 114°16'0 0.2
2015-Mar-21 07:20N 22°34' E 114°16'19 2.2
2015-Mar-20 22:31N 22°18' E 114°27'1010.9
2015-Mar-20 21:33N 22°09' E 114°23'17 8.4
2015-Mar-20 19:33N 22°17' E 114°06'3 3.3
2015-Mar-20 18:31N 22°20' E 114°07'0 0.0
2015-Mar-20 17:31N 22°20' E 114°07'0 0.0
2015-Mar-20 16:34N 22°20' E 114°07'0 0.0
2015-Mar-20 15:33N 22°20' E 114°07'0 0.0
2015-Mar-20 14:31N 22°20' E 114°07'0 0.0
2015-Mar-20 13:31N 22°20' E 114°07'0 0.0
2015-Mar-20 12:33N 22°20' E 114°07'0 0.0
2015-Mar-20 11:33N 22°20' E 114°07'0 0.0
2015-Mar-20 10:32N 22°20' E 114°07'0 0.0
2015-Mar-20 09:32N 22°20' E 114°07'0 0.0
2015-Mar-20 08:32N 22°20' E 114°07'0 0.0
2015-Mar-20 07:31N 22°20' E 114°07'0 0.0
2015-Mar-20 06:33N 22°20' E 114°07'8 6.9
2015-Mar-20 05:27N 22°13' E 114°10'9 0.6
2015-Mar-19 14:21N 22°05' E 114°15'0 0.0
2015-Mar-18 20:05N 22°05' E 114°15'0 0.0
2015-Mar-18 00:32N 22°05' E 114°15'0 0.0
2015-Mar-17 22:16N 22°05' E 114°15'0 0.0
2015-Mar-17 21:31N 22°05' E 114°15'0 0.0
2015-Mar-17 20:12N 22°05' E 114°15'0 0.0
2015-Mar-17 18:12N 22°05' E 114°15'0 0.0
2015-Mar-17 17:14N 22°05' E 114°15'0 0.0
2015-Mar-17 11:29N 22°05' E 114°15'0 0.0
2015-Mar-16 20:06N 22°05' E 114°15'0 0.0
2015-Mar-16 19:33N 22°05' E 114°15'0 0.0
2015-Mar-16 12:06N 22°05' E 114°15'0 0.6
2015-Mar-16 11:33N 22°05' E 114°16'6 6.3
2015-Mar-16 10:33N 22°02' E 114°22'  
Track history (hours):
 
Tides and Currents Weather Stations Pressure Air Temp Water Temp Dewpoint Dewpoint Depression Visibility Wind Speed Wind Dir Waves Ship Positions

Maersk Danang

Last reported at 2015-Mar-25 12:27 UTC. Time now 2015-Mar-30 20:02 UTC.
Position N 31°05' E 122°32'.

Length 293 m; draft 10.9 m.

Type: Ship (hazmat cat A). MMSI: 636091595.

Date/timePositionNaut miles runAvg speedWind from/ knotsBaromVisibWave heightAir tempDewpointWater temp
2015-Mar-25 12:27N 31°05' E 122°32'1111.0
2015-Mar-25 11:27N 31°06' E 122°19'1213.3
2015-Mar-25 10:33N 31°13' E 122°08'1211.7
2015-Mar-25 09:34N 31°16' E 121°55'1211.5
2015-Mar-25 08:33N 31°19' E 121°42'2 2.2
2015-Mar-25 07:31N 31°20' E 121°39'0 0.0
2015-Mar-25 06:33N 31°20' E 121°39'0 0.1
2015-Mar-25 05:33N 31°20' E 121°39'0 0.1
2015-Mar-25 04:34N 31°20' E 121°39'0 0.1
2015-Mar-25 03:31N 31°20' E 121°39'0 0.0
2015-Mar-25 01:32N 31°20' E 121°39'0 0.1
2015-Mar-25 00:28N 31°20' E 121°39'0 0.0
2015-Mar-24 23:31N 31°20' E 121°39'0 0.1
2015-Mar-24 22:32N 31°20' E 121°39'0 0.1
2015-Mar-24 21:31N 31°20' E 121°39'0 0.1
2015-Mar-24 20:30N 31°20' E 121°39'0 0.0
2015-Mar-24 19:32N 31°20' E 121°39'1 0.8
2015-Mar-24 18:33N 31°21' E 121°39'6 5.8
2015-Mar-24 17:33N 31°19' E 121°45'1111.2
2015-Mar-24 16:33N 31°15' E 121°58'1111.3
2015-Mar-24 15:33N 31°11' E 122°10'1312.7
2015-Mar-24 14:33N 31°06' E 122°24'1110.8
2015-Mar-24 13:31N 31°07' E 122°37'43110.5
2015-Mar-22 20:33N 24°35' E 119°12'1413.8
2015-Mar-22 19:31N 24°26' E 119°00'2913.5
2015-Mar-22 17:24N 24°07' E 118°37'1214.2
2015-Mar-22 16:33N 23°59' E 118°27'1514.8
2015-Mar-22 15:33N 23°50' E 118°15'1615.6
2015-Mar-22 14:33N 23°40' E 118°02'2216.0
2015-Mar-22 13:10N 23°25' E 117°43'1015.8
2015-Mar-22 12:32N 23°19' E 117°35'3314.2
2015-Mar-22 10:13N 22°60' E 117°06'913.4
2015-Mar-22 09:32N 22°55' E 116°57'13713.7
2015-Mar-21 23:33N 22°19' E 114°34'2310.9
2015-Mar-21 21:26N 22°34' E 114°16'0 0.0
2015-Mar-21 20:26N 22°34' E 114°16'0 0.0
2015-Mar-21 19:32N 22°34' E 114°16'0 0.0
2015-Mar-21 17:19N 22°34' E 114°16'0 0.0
2015-Mar-21 16:33N 22°34' E 114°16'0 0.0
2015-Mar-21 15:32N 22°35' E 114°16'0 0.0
2015-Mar-21 14:33N 22°35' E 114°16'0 0.0
2015-Mar-21 13:33N 22°35' E 114°16'0 0.0
2015-Mar-21 12:33N 22°35' E 114°16'0 0.0
2015-Mar-21 11:25N 22°35' E 114°16'0 0.0
2015-Mar-21 10:33N 22°34' E 114°16'0 0.0
2015-Mar-21 09:31N 22°35' E 114°16'0 0.0
2015-Mar-21 08:30N 22°35' E 114°16'0 0.2
2015-Mar-21 07:20N 22°34' E 114°16'19 2.2
2015-Mar-20 22:31N 22°18' E 114°27'1010.9
2015-Mar-20 21:33N 22°09' E 114°23'17 8.4
2015-Mar-20 19:33N 22°17' E 114°06'3 3.3
2015-Mar-20 18:31N 22°20' E 114°07'0 0.0
2015-Mar-20 17:31N 22°20' E 114°07'0 0.0
2015-Mar-20 16:34N 22°20' E 114°07'0 0.0
2015-Mar-20 15:33N 22°20' E 114°07'0 0.0
2015-Mar-20 14:31N 22°20' E 114°07'0 0.0
2015-Mar-20 13:31N 22°20' E 114°07'0 0.0
2015-Mar-20 12:33N 22°20' E 114°07'0 0.0
2015-Mar-20 11:33N 22°20' E 114°07'0 0.0
2015-Mar-20 10:32N 22°20' E 114°07'0 0.0
2015-Mar-20 09:32N 22°20' E 114°07'0 0.0
2015-Mar-20 08:32N 22°20' E 114°07'0 0.0
2015-Mar-20 07:31N 22°20' E 114°07'0 0.0
2015-Mar-20 06:33N 22°20' E 114°07'8 6.9
2015-Mar-20 05:27N 22°13' E 114°10'9 0.6
2015-Mar-19 14:21N 22°05' E 114°15'0 0.0
2015-Mar-18 20:05N 22°05' E 114°15'0 0.0
2015-Mar-18 00:32N 22°05' E 114°15'0 0.0
2015-Mar-17 22:16N 22°05' E 114°15'0 0.0
2015-Mar-17 21:31N 22°05' E 114°15'0 0.0
2015-Mar-17 20:12N 22°05' E 114°15'0 0.0
2015-Mar-17 18:12N 22°05' E 114°15'0 0.0
2015-Mar-17 17:14N 22°05' E 114°15'0 0.0
2015-Mar-17 11:29N 22°05' E 114°15'0 0.0
2015-Mar-16 20:06N 22°05' E 114°15'0 0.0
2015-Mar-16 19:33N 22°05' E 114°15'0 0.0
2015-Mar-16 12:06N 22°05' E 114°15'0 0.6
2015-Mar-16 11:33N 22°05' E 114°16'6 6.3
2015-Mar-16 10:33N 22°02' E 114°22'  

Dump ship's entire track history